createdAt,value
2019-02-27T00:01:07.240Z,74.77
2019-02-27T00:04:16.538Z,79.10
2019-02-27T00:07:24.352Z,76.37
2019-02-27T00:10:32.000Z,78.13
2019-02-27T00:13:39.552Z,74.30
2019-02-27T00:16:47.148Z,75.10
2019-02-27T00:19:54.738Z,73.30
2019-02-27T00:23:02.410Z,80.73
2019-02-27T00:26:10.072Z,82.53
2019-02-27T00:29:17.634Z,84.00
2019-02-27T00:32:25.134Z,84.47
2019-02-27T00:35:32.666Z,86.97
2019-02-27T00:38:40.186Z,84.17
2019-02-27T00:41:48.598Z,80.57
2019-02-27T00:44:56.257Z,77.87
2019-02-27T00:48:04.024Z,82.87
2019-02-27T00:51:11.966Z,91.43
2019-02-27T00:54:20.358Z,90.30
2019-02-27T00:57:27.849Z,84.70
2019-02-27T01:00:38.941Z,86.70
2019-02-27T01:03:44.555Z,89.63
2019-02-27T01:06:53.253Z,89.87
2019-02-27T01:10:00.865Z,89.50
2019-02-27T01:13:10.039Z,89.00
2019-02-27T01:16:17.839Z,89.60
2019-02-27T01:19:26.560Z,94.87
2019-02-27T01:22:34.091Z,92.23
2019-02-27T01:25:41.586Z,90.63
2019-02-27T01:28:49.149Z,96.67
2019-02-27T01:31:57.612Z,96.57
2019-02-27T01:35:06.639Z,103.10
2019-02-27T01:38:14.289Z,105.07
2019-02-27T01:41:24.597Z,99.80
2019-02-27T01:44:31.970Z,98.47
2019-02-27T01:47:39.540Z,100.20
2019-02-27T01:50:47.090Z,99.20
2019-02-27T01:53:54.854Z,103.70
2019-02-27T01:57:02.905Z,98.77
2019-02-27T02:00:11.187Z,101.40
2019-02-27T02:03:20.595Z,109.20
2019-02-27T02:06:31.937Z,112.47
2019-02-27T02:09:38.938Z,113.43
2019-02-27T02:12:58.456Z,114.37
2019-02-27T02:16:48.463Z,106.40
2019-02-27T02:20:47.965Z,108.87
2019-02-27T02:24:20.908Z,126.10
2019-02-27T02:28:19.836Z,110.37
2019-02-27T02:32:00.591Z,105.47
2019-02-27T02:36:06.725Z,118.53
2019-02-27T02:39:37.399Z,176.63
2019-02-27T02:43:39.934Z,189.67
2019-02-27T02:47:31.959Z,135.37
2019-02-27T02:51:29.982Z,96.93
2019-02-27T02:55:11.905Z,120.97
2019-02-27T02:58:54.137Z,102.20
2019-02-27T03:02:35.566Z,152.23
2019-02-27T03:06:22.813Z,145.07
2019-02-27T03:10:08.287Z,207.17
2019-02-27T03:14:00.091Z,196.00
2019-02-27T03:17:32.762Z,121.07
2019-02-27T03:21:15.483Z,116.30
2019-02-27T03:25:12.749Z,174.53
2019-02-27T03:28:52.455Z,107.93
2019-02-27T03:32:41.360Z,111.63
2019-02-27T03:36:19.755Z,105.93
2019-02-27T03:40:10.694Z,89.37
2019-02-27T03:43:33.112Z,98.50
2019-02-27T03:47:15.559Z,108.40
2019-02-27T03:50:41.313Z,164.17
2019-02-27T03:54:07.523Z,105.70
2019-02-27T03:57:47.391Z,122.67
2019-02-27T04:01:22.534Z,122.47
2019-02-27T04:05:05.162Z,84.30
2019-02-27T04:08:52.388Z,131.00
2019-02-27T04:11:59.887Z,141.30
2019-02-27T04:15:07.844Z,105.90
2019-02-27T04:18:13.476Z,99.53
2019-02-27T04:21:24.927Z,87.03
2019-02-27T04:24:30.374Z,143.57
2019-02-27T04:27:37.855Z,100.40
2019-02-27T04:30:45.399Z,92.40
2019-02-27T04:33:52.914Z,107.73
2019-02-27T04:37:00.465Z,111.30
2019-02-27T04:40:10.855Z,106.37
2019-02-27T04:43:18.957Z,138.63
2019-02-27T04:46:26.516Z,104.63
2019-02-27T04:49:34.765Z,100.30
2019-02-27T04:52:43.245Z,99.60
2019-02-27T04:55:51.296Z,109.70
2019-02-27T04:58:58.862Z,104.63
2019-02-27T05:02:06.439Z,126.13
2019-02-27T05:05:14.129Z,116.33
2019-02-27T05:08:21.773Z,114.40
2019-02-27T05:11:29.300Z,142.00
2019-02-27T05:14:36.832Z,102.83
2019-02-27T05:17:46.265Z,92.27
2019-02-27T05:20:53.771Z,138.90
2019-02-27T05:24:01.304Z,132.23
2019-02-27T05:27:09.820Z,154.70
2019-02-27T05:30:17.471Z,106.53
2019-02-27T05:33:25.128Z,91.93
2019-02-27T05:36:32.799Z,135.93
2019-02-27T05:39:40.316Z,134.40
2019-02-27T05:42:48.015Z,121.60
2019-02-27T05:45:55.553Z,119.53
2019-02-27T05:49:03.106Z,108.57
2019-02-27T05:52:11.878Z,145.07
2019-02-27T05:55:19.800Z,139.20
2019-02-27T05:58:27.360Z,119.77
2019-02-27T06:01:37.778Z,96.00
2019-02-27T06:04:44.034Z,96.37
2019-02-27T06:07:51.566Z,89.03
2019-02-27T06:10:59.165Z,132.43
2019-02-27T06:14:06.741Z,106.13
2019-02-27T06:17:15.505Z,149.67
2019-02-27T06:20:23.185Z,127.70
2019-02-27T06:23:30.770Z,113.70
2019-02-27T06:26:38.324Z,155.30
2019-02-27T06:29:46.193Z,95.07
2019-02-27T06:32:53.716Z,128.80
2019-02-27T06:36:01.337Z,84.70
2019-02-27T06:39:08.872Z,92.23
2019-02-27T06:42:16.506Z,113.23
2019-02-27T06:45:24.133Z,91.87
2019-02-27T06:48:31.738Z,96.90
2019-02-27T06:51:39.353Z,78.97
2019-02-27T06:54:46.842Z,68.80
2019-02-27T06:57:54.367Z,66.20
2019-02-27T07:01:01.876Z,75.33
2019-02-27T07:04:09.578Z,91.77
2019-02-27T07:07:17.163Z,68.33
2019-02-27T07:10:24.692Z,57.07
2019-02-27T07:13:32.219Z,65.37
2019-02-27T07:16:39.748Z,92.60
2019-02-27T07:19:49.589Z,49.93
2019-02-27T07:22:56.605Z,54.07
2019-02-27T07:26:04.418Z,54.47
2019-02-27T07:29:21.131Z,50.50
2019-02-27T07:32:21.103Z,51.87
2019-02-27T07:35:29.300Z,55.27
2019-02-27T07:38:37.101Z,53.77
2019-02-27T07:41:44.617Z,52.30
2019-02-27T07:44:52.201Z,54.90
2019-02-27T07:47:59.701Z,58.07
2019-02-27T07:51:07.314Z,55.57
2019-02-27T07:54:14.889Z,38.53
2019-02-27T07:57:22.581Z,41.37
2019-02-27T08:00:31.140Z,38.97
2019-02-27T08:03:38.720Z,48.90
2019-02-27T08:06:46.321Z,49.63
2019-02-27T08:09:53.849Z,46.07
2019-02-27T08:13:01.409Z,45.80
2019-02-27T08:16:09.017Z,49.90
2019-02-27T08:19:16.627Z,47.53
2019-02-27T08:22:24.214Z,41.57
2019-02-27T08:25:31.856Z,48.50
2019-02-27T08:28:39.478Z,46.17
2019-02-27T08:31:47.051Z,47.50
2019-02-27T08:34:55.139Z,54.60
2019-02-27T08:38:03.172Z,49.03
2019-02-27T08:41:10.861Z,49.43
2019-02-27T08:44:18.529Z,65.50
2019-02-27T08:47:26.025Z,54.20
2019-02-27T08:50:36.140Z,46.10
2019-02-27T08:53:43.827Z,52.43
2019-02-27T08:56:51.664Z,49.93
2019-02-27T08:59:59.331Z,48.23
2019-02-27T09:03:06.934Z,51.43
2019-02-27T09:06:17.781Z,59.73
2019-02-27T09:09:23.866Z,64.13
2019-02-27T09:12:31.466Z,61.67
2019-02-27T09:15:39.020Z,70.97
2019-02-27T09:18:46.788Z,96.63
2019-02-27T09:21:54.541Z,68.70
2019-02-27T09:25:03.186Z,71.87
2019-02-27T09:28:10.855Z,62.30
2019-02-27T09:31:18.619Z,54.77
2019-02-27T09:34:26.822Z,57.57
2019-02-27T09:37:35.121Z,61.80
2019-02-27T09:40:42.743Z,57.80
2019-02-27T09:43:50.447Z,55.90
2019-02-27T09:46:59.863Z,56.50
2019-02-27T09:50:07.534Z,50.30
2019-02-27T09:53:15.179Z,57.00
2019-02-27T09:56:22.831Z,56.40
2019-02-27T09:59:31.411Z,59.80
2019-02-27T10:02:38.970Z,66.27
2019-02-27T10:05:46.609Z,59.00
2019-02-27T10:08:56.395Z,61.23
2019-02-27T10:12:03.447Z,65.40
2019-02-27T10:15:11.217Z,74.27
2019-02-27T10:18:21.870Z,59.93
2019-02-27T10:21:28.179Z,60.73
2019-02-27T10:24:36.869Z,55.60
2019-02-27T10:27:45.044Z,52.50
2019-02-27T10:30:52.568Z,47.97
2019-02-27T10:34:01.529Z,49.50
2019-02-27T10:37:12.874Z,39.90
2019-02-27T10:40:19.412Z,48.10
2019-02-27T10:43:26.877Z,40.97
2019-02-27T10:46:34.437Z,35.67
2019-02-27T10:49:42.017Z,36.67
2019-02-27T10:52:50.172Z,36.67
2019-02-27T10:55:58.005Z,42.43
2019-02-27T10:59:05.649Z,34.97
2019-02-27T11:02:13.427Z,35.73
2019-02-27T11:05:21.295Z,34.50
2019-02-27T11:08:29.636Z,36.70
2019-02-27T11:11:37.434Z,31.93
2019-02-27T11:14:45.017Z,32.77
2019-02-27T11:17:53.529Z,34.70
2019-02-27T11:21:01.490Z,34.13
2019-02-27T11:24:10.257Z,30.90
2019-02-27T11:27:17.973Z,35.07
2019-02-27T11:30:28.016Z,37.93
2019-02-27T11:33:35.654Z,37.20
2019-02-27T11:36:43.382Z,45.50
2019-02-27T11:39:50.898Z,52.40
2019-02-27T11:42:58.405Z,56.30
2019-02-27T11:46:06.137Z,66.27
2019-02-27T11:49:14.757Z,38.37
2019-02-27T11:52:22.367Z,50.70
2019-02-27T11:55:31.555Z,31.13
2019-02-27T11:58:39.178Z,40.87
2019-02-27T12:01:48.059Z,35.13
2019-02-27T12:04:56.650Z,30.60
2019-02-27T12:08:04.716Z,29.03
2019-02-27T12:11:13.243Z,21.10
2019-02-27T12:14:22.720Z,23.13
2019-02-27T12:17:30.247Z,24.30
2019-02-27T12:20:37.871Z,25.70
2019-02-27T12:23:45.717Z,19.67
2019-02-27T12:26:53.459Z,26.07
2019-02-27T12:30:02.758Z,23.83
2019-02-27T12:33:10.766Z,32.60
2019-02-27T12:36:18.748Z,31.97
2019-02-27T12:39:27.028Z,19.40
2019-02-27T12:42:37.239Z,21.57
2019-02-27T12:45:43.974Z,23.80
2019-02-27T12:48:53.077Z,21.70
2019-02-27T12:52:00.775Z,21.13
2019-02-27T12:55:09.172Z,20.90
2019-02-27T12:58:16.831Z,18.20
2019-02-27T13:01:24.307Z,20.20
2019-02-27T13:04:31.996Z,19.90
2019-02-27T13:07:42.111Z,19.03
2019-02-27T13:10:48.836Z,18.10
2019-02-27T13:13:59.728Z,15.73
2019-02-27T13:17:06.856Z,15.03
2019-02-27T13:20:17.233Z,16.80
2019-02-27T13:23:25.796Z,15.80
2019-02-27T13:26:34.726Z,13.60
2019-02-27T13:29:44.590Z,18.03
2019-02-27T13:32:52.248Z,22.63
2019-02-27T13:36:00.592Z,14.40
2019-02-27T13:39:10.134Z,26.10
2019-02-27T13:42:18.659Z,32.40
2019-02-27T13:45:27.255Z,34.90
2019-02-27T13:48:37.399Z,28.80
2019-02-27T13:51:44.946Z,19.93
2019-02-27T13:54:54.148Z,24.70
2019-02-27T13:58:03.727Z,18.33
2019-02-27T14:01:12.145Z,21.33
2019-02-27T14:04:22.632Z,18.30
2019-02-27T14:07:29.062Z,18.33
2019-02-27T14:10:36.630Z,20.17
2019-02-27T14:13:44.941Z,16.53
2019-02-27T14:16:52.578Z,20.30
2019-02-27T14:20:00.359Z,27.40
2019-02-27T14:23:09.178Z,17.70
2019-02-27T14:26:16.770Z,26.47
2019-02-27T14:29:26.091Z,19.43
2019-02-27T14:32:36.092Z,29.57
2019-02-27T14:35:43.844Z,20.17
2019-02-27T14:38:53.402Z,19.90
2019-02-27T14:42:00.683Z,22.20
2019-02-27T14:45:11.867Z,21.63
2019-02-27T14:48:21.612Z,27.03
2019-02-27T14:51:29.098Z,23.60
2019-02-27T14:54:36.706Z,20.60
2019-02-27T14:57:46.956Z,20.10
2019-02-27T15:00:53.554Z,24.30
2019-02-27T15:04:01.497Z,25.57
2019-02-27T15:07:09.322Z,23.17
2019-02-27T15:10:19.175Z,29.40
2019-02-27T15:13:28.314Z,29.63
2019-02-27T15:16:36.097Z,31.13
2019-02-27T15:19:43.918Z,24.87
2019-02-27T15:22:53.726Z,39.00
2019-02-27T15:26:01.640Z,34.33
2019-02-27T15:29:10.881Z,38.83
2019-02-27T15:32:20.059Z,38.80
2019-02-27T15:35:28.364Z,43.40
2019-02-27T15:38:36.150Z,37.93
2019-02-27T15:41:43.849Z,44.73
2019-02-27T15:44:51.727Z,54.07
2019-02-27T15:47:59.362Z,47.20
2019-02-27T15:51:06.978Z,71.17
2019-02-27T15:54:15.566Z,62.37
2019-02-27T15:57:23.103Z,63.20
2019-02-27T16:00:31.220Z,81.90
2019-02-27T16:03:39.013Z,71.27
2019-02-27T16:06:46.604Z,70.97
2019-02-27T16:09:54.240Z,94.60
2019-02-27T16:13:02.052Z,74.63
2019-02-27T16:16:11.285Z,75.87
2019-02-27T16:19:19.472Z,79.80
2019-02-27T16:22:28.469Z,76.72
2019-02-27T16:25:36.345Z,83.33
2019-02-27T16:28:48.461Z,73.50
2019-02-27T16:31:53.160Z,67.13
2019-02-27T16:35:04.245Z,79.60
2019-02-27T16:38:13.045Z,68.77
2019-02-27T16:41:19.974Z,78.07
2019-02-27T16:44:27.535Z,77.50
2019-02-27T16:47:35.200Z,88.40
2019-02-27T16:50:42.985Z,62.63
2019-02-27T16:53:52.649Z,70.60
2019-02-27T16:57:00.028Z,67.03
2019-02-27T17:00:08.636Z,62.03
2019-02-27T17:03:17.410Z,61.37
2019-02-27T17:06:25.022Z,58.70
2019-02-27T17:09:32.625Z,71.37
2019-02-27T17:12:40.878Z,77.83
2019-02-27T17:15:49.311Z,62.53
2019-02-27T17:18:59.136Z,109.20
2019-02-27T17:22:06.316Z,83.87
2019-02-27T17:25:14.302Z,66.60
2019-02-27T17:28:22.044Z,85.93
2019-02-27T17:31:29.563Z,133.60
2019-02-27T17:34:37.217Z,144.00
2019-02-27T17:37:44.755Z,103.67
2019-02-27T17:40:52.558Z,64.80
2019-02-27T17:44:03.829Z,70.43
2019-02-27T17:47:09.631Z,74.47
2019-02-27T17:50:17.622Z,62.33
2019-02-27T17:53:27.169Z,76.57
2019-02-27T17:56:35.183Z,82.37
2019-02-27T17:59:43.008Z,85.07
2019-02-27T18:02:51.943Z,80.53
2019-02-27T18:06:00.692Z,69.47
2019-02-27T18:09:08.962Z,48.30
2019-02-27T18:12:17.202Z,51.27
2019-02-27T18:15:24.974Z,48.10
2019-02-27T18:18:33.522Z,59.10
2019-02-27T18:21:41.989Z,59.77
2019-02-27T18:24:49.650Z,58.57
2019-02-27T18:27:59.549Z,56.43
2019-02-27T18:31:06.787Z,61.17
2019-02-27T18:34:14.381Z,58.60
2019-02-27T18:37:21.893Z,63.60
2019-02-27T18:40:29.577Z,66.13
2019-02-27T18:43:38.202Z,70.83
2019-02-27T18:46:45.846Z,63.80
2019-02-27T18:49:53.518Z,57.83
2019-02-27T18:53:01.223Z,70.30
2019-02-27T18:56:08.795Z,84.47
2019-02-27T18:59:16.543Z,69.23
2019-02-27T19:02:24.055Z,83.57
2019-02-27T19:05:31.739Z,81.10
2019-02-27T19:08:39.357Z,71.20
2019-02-27T19:11:47.387Z,75.00
2019-02-27T19:14:56.435Z,83.35
2019-02-27T19:18:06.640Z,63.97
2019-02-27T19:21:13.638Z,74.57
2019-02-27T19:24:26.689Z,74.57
2019-02-27T19:27:30.934Z,70.23
2019-02-27T19:30:38.794Z,89.10
2019-02-27T19:33:48.020Z,87.57
2019-02-27T19:36:55.795Z,85.90
2019-02-27T19:40:03.437Z,90.27
2019-02-27T19:43:13.218Z,71.83
2019-02-27T19:46:22.023Z,123.57
2019-02-27T19:49:29.647Z,99.20
2019-02-27T19:52:37.145Z,73.87
2019-02-27T19:55:44.735Z,74.87
2019-02-27T19:58:52.337Z,58.47
2019-02-27T20:01:59.989Z,42.40
2019-02-27T20:05:08.156Z,52.70
2019-02-27T20:08:15.876Z,52.50
2019-02-27T20:11:23.978Z,56.33
2019-02-27T20:14:36.416Z,55.47
2019-02-27T20:17:42.819Z,49.23
2019-02-27T20:20:50.886Z,49.10
2019-02-27T20:24:01.626Z,62.30
2019-02-27T20:27:08.797Z,56.33
2019-02-27T20:30:18.891Z,57.23
2019-02-27T20:33:26.801Z,55.40
2019-02-27T20:36:34.285Z,62.63
2019-02-27T20:39:42.311Z,57.70
2019-02-27T20:42:52.088Z,52.10
2019-02-27T20:45:59.247Z,55.33
2019-02-27T20:49:06.937Z,58.67
2019-02-27T20:52:15.609Z,56.57
2019-02-27T20:55:23.348Z,62.00
2019-02-27T20:58:30.985Z,58.73
2019-02-27T21:01:38.859Z,62.67
2019-02-27T21:04:46.998Z,67.00
2019-02-27T21:08:00.931Z,67.80
2019-02-27T21:11:05.727Z,62.43
2019-02-27T21:14:13.545Z,59.77
2019-02-27T21:17:21.871Z,65.70
2019-02-27T21:20:31.555Z,56.10
2019-02-27T21:23:40.254Z,62.93
2019-02-27T21:26:48.034Z,51.70
2019-02-27T21:29:55.634Z,49.30
2019-02-27T21:33:03.237Z,51.63
2019-02-27T21:36:10.806Z,49.50
2019-02-27T21:39:19.060Z,52.30
2019-02-27T21:42:26.717Z,51.87
2019-02-27T21:45:37.142Z,56.20
2019-02-27T21:48:43.576Z,55.87
2019-02-27T21:51:51.390Z,61.83
2019-02-27T21:54:59.082Z,57.47
2019-02-27T21:58:07.472Z,52.63
2019-02-27T22:01:15.122Z,60.47
2019-02-27T22:04:22.797Z,57.50
2019-02-27T22:07:33.248Z,53.20
2019-02-27T22:10:39.579Z,57.10
2019-02-27T22:13:47.237Z,60.90
2019-02-27T22:16:54.782Z,49.37
2019-02-27T22:20:02.323Z,50.70
2019-02-27T22:23:12.731Z,48.17
2019-02-27T22:26:19.163Z,48.07
2019-02-27T22:29:27.913Z,46.57
2019-02-27T22:32:36.201Z,46.23
2019-02-27T22:35:43.807Z,50.97
2019-02-27T22:38:51.294Z,50.90
2019-02-27T22:41:58.835Z,49.77
2019-02-27T22:45:06.928Z,47.93
2019-02-27T22:48:14.467Z,39.10
2019-02-27T22:51:22.063Z,43.67
2019-02-27T22:54:29.547Z,42.77
2019-02-27T22:57:37.008Z,44.07
2019-02-27T23:01:22.663Z,36.60
2019-02-27T23:04:31.435Z,35.80
2019-02-27T23:07:39.043Z,39.40
2019-02-27T23:10:46.769Z,39.87
2019-02-27T23:13:54.235Z,35.87
2019-02-27T23:17:01.832Z,37.50
2019-02-27T23:20:09.816Z,38.97
2019-02-27T23:23:17.324Z,42.70
2019-02-27T23:26:24.854Z,41.20
2019-02-27T23:29:32.471Z,41.30
2019-02-27T23:32:40.065Z,43.37
2019-02-27T23:35:50.242Z,44.43
2019-02-27T23:38:56.822Z,40.97
2019-02-27T23:42:04.420Z,48.97
2019-02-27T23:45:12.176Z,45.73
2019-02-27T23:48:19.777Z,45.37
2019-02-27T23:51:27.369Z,37.60
2019-02-27T23:54:35.908Z,45.97
2019-02-27T23:57:44.234Z,35.27
